x

Edisto - 41 Nm Southeast Of Charleston, Sc (41004) Wave Buoy

6:50pm - Fri 19th Sep 2014 All times are EDT. -4 hours from GMT.

  • Sig Wave height 5.6ft
  • Swell Direction
  • Peak Period 6s
  • Average Period 5s
  • Wind
    18mph, 20mph gusts
  • Sea Temp 82°f
  • Air Temp 79°f
  • Sea Pressure 1017.1mb
  • Edisto - 41 Nm Southeast Of Charleston, Sc
  • Edisto - 41 Nm Southeast Of Charleston, Sc

More Historic Weather Station data

Upgrade to MSW Pro to gain access to the past 30 days of data for over 8000 Wavebouys and Weather Stations around the globe.

Join Pro

Comparision Forecast

View Surf forecast
   
Fri 09/19 6:50pm 5.5ft 6s 5s 18 20 mph 1017.1mb 82f 79f
5:50pm 6ft 6s 5s 20 22 mph 1016.8mb 82f 79f
4:50pm 6ft 6s 5s 18 22 mph 1016.7mb 82f 79f
3:50pm 6ft 6s 5s 22 25 mph 1016.5mb 82f 78f
2:50pm 5ft 6s 4s 27 31 mph 1016.6mb 82f 78f
1:50pm 4.5ft 6s 4s 25 29 mph 1017.1mb 82f 77f
12:50pm 4.5ft 6s 5s 22 25 mph 1017.4mb 82f 76f
11:50am 4.5ft 6s 5s 18 22 mph 1018mb 82f 73f
10:50am 5ft 6s 4s 29 34 mph 1017.4mb 82f 74f
9:50am 4.5ft 6s 5s 16 27 mph 1016.9mb 82f 80f
8:50am 4ft 6s 5s 9 13 mph 1016.6mb 83f 76f
7:50am 4.5ft 6s 5s 13 16 mph 1016.2mb 83f 80f
6:50am 4ft 6s 5s 13 18 mph 1015.7mb 83f 80f
5:50am 4ft 6s 5s 13 18 mph 1015mb 83f 80f
4:50am 3.5ft 6s 5s 16 18 mph 1014.4mb 83f 79f
3:50am 3.5ft 7s 6s 9 11 mph 1014.5mb 83f 80f
2:50am 3.5ft 6s 5s 7 9 mph 1014.7mb 83f 81f
1:50am 3ft 9s 5s 7 9 mph 1014.7mb 83f 81f
12:50am 3ft 11s 5s 9 11 mph 1014.7mb 83f 80f
Thu 09/18 11:50pm 3ft 10s 5s 9 11 mph 1015mb 83f 81f
10:50pm 2.5ft 9s 5s 13 16 mph 1014.8mb 83f 80f
9:50pm 2.5ft 9s 6s 11 16 mph 1014.6mb 83f 80f
8:50pm 3ft 10s 6s 11 13 mph 1014.2mb 83f 81f
7:50pm 3ft 10s 6s 9 13 mph 1013.6mb 83f 81f
6:50pm 2.5ft 10s 6s 11 13 mph 1013.2mb 83f 80f
5:50pm 3ft 12s 7s 9 11 mph 1013mb 84f 80f
4:50pm 3ft 10s 7s 9 11 mph 1012.8mb 84f 80f
3:50pm 3ft 10s 7s 7 9 mph 1012.8mb 84f 80f
2:50pm 3ft 11s 7s 7 9 mph 1013.3mb 84f 80f
1:50pm 3ft 10s 7s 7 9 mph 1013.8mb 83f 80f
12:50pm 3ft 12s 7s 7 9 mph 1013.9mb 83f 79f
11:50am 3ft 11s 8s 9 11 mph 1014.2mb 83f 79f
10:50am 3.5ft 10s 8s 4 7 mph 1014.1mb 83f 80f
9:50am 3.5ft 11s 8s 7
mph
1013.8mb 83f 79f
8:50am 3.5ft 11s 8s 2 4 mph 1013.3mb 83f 79f
7:50am 4ft 11s 8s 7
mph
1012.6mb 83f 79f
6:50am 4ft 11s 8s 7 9 mph 1012.1mb 83f 79f
5:50am 3.5ft 11s 9s 7 9 mph 1011.8mb 83f 79f
4:50am 3.5ft 12s 9s 7 9 mph 1011.3mb 83f 80f
3:50am 3.5ft 11s 8s 4 7 mph 1011.5mb 83f 80f
2:50am 4ft 13s 9s 7
mph
1011.7mb 83f 80f
1:50am 3.5ft 13s 9s 7 11 mph 1011.8mb 83f 80f
12:50am 3.5ft 13s 8s 4 7 mph 1012.2mb 83f 81f
Wed 09/17 11:50pm 3.5ft 13s 8s 4 7 mph 1012.5mb 83f 81f
10:50pm 4ft 14s 7s 4
mph
1012.4mb 83f 81f
9:50pm 3.5ft 13s 7s 4 7 mph 1012.4mb 83f 81f
8:50pm 4ft 14s 7s 4 7 mph 1012mb 83f 81f
7:50pm 4ft 14s 8s 9
mph
1011.2mb 83f 80f
6:50pm 3.5ft 12s 7s 9 11 mph 1011.1mb 83f 80f
5:50pm 3.5ft 14s 6s 7 9 mph 1011mb 83f 80f
4:50pm 3.5ft 14s 7s 7 9 mph 1011.1mb 83f 80f
3:50pm 3.5ft 14s 6s 7 9 mph 1011.1mb 83f 79f
2:50pm 3.5ft 15s 6s 7 9 mph 1011.4mb 83f 79f
1:50pm 3.5ft 15s 6s 9 11 mph 1012mb 83f 79f
12:50pm 4ft 15s 5s 13 16 mph 1012.6mb 83f 78f
11:50am 3.5ft 15s 5s 20 22 mph 1012.7mb 83f 78f
10:50am 3ft 12s 4s 20 25 mph 1012.9mb 83f 78f
9:50am 3ft 16s 5s 11 16 mph 1012.6mb 83f 79f
8:50am 3ft 14s 5s 4
mph
1012.5mb 83f 80f
7:50am 2.5ft 16s 5s 7 11 mph 1012.4mb 83f 79f
6:50am 2.5ft 12s 4s 16 18 mph 1012.4mb 83f 78f
5:50am 2ft 12s 6s 4 7 mph 1012.6mb 83f 75f
4:50am 2ft 12s 5s 16 22 mph 1012.1mb 83f 74f
3:50am 2ft 12s 5s 4 7 mph 1012.1mb 83f 79f
2:50am 2ft 13s 4s 7
mph
1012.4mb 83f 79f
1:50am 2ft 13s 4s 13 16 mph 1012.5mb 83f 79f
12:50am 2ft 12s 4s 4 7 mph 1013.5mb 83f 80f
Tue 09/16 11:50pm 1.6ft 12s 4s 9 11 mph 1013.8mb 83f 78f
10:50pm 1.3ft 13s 5s 16 20 mph 1013.5mb 83f 77f
9:50pm 1.3ft 12s 5s 4 7 mph 1014.3mb 83f 79f
8:50pm 1.6ft 13s 5s 7 9 mph 1014.6mb 83f 79f
7:50pm 1.6ft 14s 4s 4
mph
1014.2mb 83f 79f
6:50pm 1.6ft 8s 4s 9 11 mph 1013.9mb 84f 79f
5:50pm 1.3ft 8s 5s 9 11 mph 1013.5mb 84f 79f
4:50pm 1.3ft 8s 6s 4 7 mph 1013.9mb 84f 80f
3:50pm 1.3ft 7s 5s 4
mph
1014.5mb 84f 80f
2:50pm 1.6ft 6s 6s 2 4 mph 1015.1mb 84f 81f
1:50pm 1.6ft 7s 6s 7 9 mph 1015.3mb 84f 80f
12:50pm 1.6ft 8s 5s 7 9 mph 1015.9mb 84f 80f
11:50am 1.6ft 8s 5s 4 7 mph 1016.7mb 84f 81f
10:50am 1.3ft 8s 5s 4
mph
1017.2mb 83f 81f
9:50am 1.6ft 12s 5s 2 4 mph 1017.2mb 83f 81f
8:50am 1.6ft 7s 6s 7
mph
1017.1mb 83f 80f
7:50am 1.6ft 13s 5s 7 9 mph 1017mb 83f 81f
6:50am 1.6ft 8s 5s 7 9 mph 1017.2mb 83f 81f
5:50am 1.6ft 8s 5s 7
mph
1017.2mb 83f 81f
4:50am 1.6ft 8s 5s 4 7 mph 1017.1mb 83f 81f
3:50am 1.6ft 8s 5s 2
mph
1017mb 83f 81f
2:50am 1.6ft 8s 5s 2 4 mph 1017.5mb 83f 81f
1:50am 1.6ft 8s 5s 2 4 mph 1018mb 83f 81f
12:50am 2ft 8s 5s 2 4 mph 1018.5mb 83f 80f